createdAt,value
2018-02-11T00:00:02.459Z,13.90
2018-02-11T00:01:02.452Z,14.90
2018-02-11T00:02:02.446Z,13.60
2018-02-11T00:03:02.443Z,13.00
2018-02-11T00:04:02.436Z,13.60
2018-02-11T00:05:02.429Z,13.90
2018-02-11T00:06:02.421Z,14.30
2018-02-11T00:07:02.410Z,14.00
2018-02-11T00:08:02.406Z,13.30
2018-02-11T00:09:02.398Z,14.90
2018-02-11T00:10:02.391Z,15.20
2018-02-11T00:11:02.384Z,13.90
2018-02-11T00:12:02.368Z,14.50
2018-02-11T00:13:02.361Z,12.20
2018-02-11T00:14:02.354Z,14.40
2018-02-11T00:15:02.354Z,13.20
2018-02-11T00:16:02.339Z,13.80
2018-02-11T00:17:02.337Z,13.50
2018-02-11T00:18:02.323Z,14.20
2018-02-11T00:19:02.314Z,12.50
2018-02-11T00:20:02.315Z,13.00
2018-02-11T00:21:02.301Z,13.40
2018-02-11T00:22:02.293Z,13.20
2018-02-11T00:23:02.286Z,13.00
2018-02-11T00:24:02.287Z,13.20
2018-02-11T00:25:02.270Z,12.80
2018-02-11T00:26:02.270Z,13.10
2018-02-11T00:27:02.262Z,12.60
2018-02-11T00:28:02.247Z,12.90
2018-02-11T00:29:02.240Z,13.00
2018-02-11T00:30:02.242Z,12.30
2018-02-11T00:31:02.225Z,13.30
2018-02-11T00:32:02.225Z,13.40
2018-02-11T00:33:02.218Z,13.30
2018-02-11T00:34:02.203Z,13.30
2018-02-11T00:35:02.195Z,13.20
2018-02-11T00:36:02.188Z,13.70
2018-02-11T00:37:02.188Z,12.40
2018-02-11T00:38:02.181Z,13.60
2018-02-11T00:39:02.175Z,13.20
2018-02-11T00:40:02.166Z,13.80
2018-02-11T00:41:02.159Z,12.40
2018-02-11T00:42:02.152Z,13.40
2018-02-11T00:43:02.136Z,13.70
2018-02-11T00:44:02.130Z,12.40
2018-02-11T00:45:02.123Z,13.40
2018-02-11T00:46:02.117Z,13.20
2018-02-11T00:47:02.107Z,12.10
2018-02-11T00:48:02.107Z,11.90
2018-02-11T00:49:02.093Z,12.30
2018-02-11T00:50:02.093Z,13.80
2018-02-11T00:51:02.085Z,14.00
2018-02-11T00:52:02.072Z,13.00
2018-02-11T00:53:02.071Z,12.30
2018-02-11T00:54:02.056Z,12.50
2018-02-11T00:55:02.049Z,13.00
2018-02-11T00:56:02.042Z,12.30
2018-02-11T00:57:02.042Z,11.80
2018-02-11T00:58:02.038Z,13.20
2018-02-11T00:59:02.027Z,13.90
2018-02-11T01:00:02.020Z,13.30
2018-02-11T01:01:02.006Z,13.30
2018-02-11T01:02:01.999Z,12.90
2018-02-11T01:03:01.998Z,13.20
2018-02-11T01:04:01.991Z,13.20
2018-02-11T01:05:01.983Z,13.60
2018-02-11T01:06:01.977Z,14.90
2018-02-11T01:07:01.961Z,14.30
2018-02-11T01:08:01.964Z,13.60
2018-02-11T01:09:01.948Z,14.10
2018-02-11T01:10:01.948Z,12.70
2018-02-11T01:11:01.938Z,12.90
2018-02-11T01:12:01.932Z,12.40
2018-02-11T01:13:01.926Z,12.80
2018-02-11T01:14:01.919Z,12.60
2018-02-11T01:15:01.911Z,13.50
2018-02-11T01:16:01.897Z,13.10
2018-02-11T01:17:01.898Z,12.60
2018-02-11T01:18:01.890Z,13.00
2018-02-11T01:19:01.874Z,12.60
2018-02-11T01:20:01.867Z,13.20
2018-02-11T01:21:01.860Z,13.20
2018-02-11T01:22:01.861Z,13.60
2018-02-11T01:23:01.845Z,13.20
2018-02-11T01:24:01.838Z,12.00
2018-02-11T01:25:01.832Z,12.80
2018-02-11T01:26:01.833Z,13.30
2018-02-11T01:27:01.816Z,13.60
2018-02-11T01:28:01.808Z,13.10
2018-02-11T01:29:01.808Z,12.90
2018-02-11T01:30:01.801Z,12.90
2018-02-11T01:31:01.786Z,12.60
2018-02-11T01:32:01.778Z,13.50
2018-02-11T01:33:01.771Z,13.50
2018-02-11T01:34:01.771Z,12.90
2018-02-11T01:35:01.755Z,13.50
2018-02-11T01:36:01.756Z,12.60
2018-02-11T01:37:01.750Z,13.30
2018-02-11T01:38:01.741Z,13.10
2018-02-11T01:39:01.733Z,13.20
2018-02-11T01:40:01.720Z,12.70
2018-02-11T01:41:01.719Z,12.60
2018-02-11T01:42:01.711Z,13.60
2018-02-11T01:43:01.683Z,12.60
2018-02-11T01:44:01.676Z,12.80
2018-02-11T01:45:01.670Z,12.80
2018-02-11T01:46:01.662Z,12.30
2018-02-11T01:47:01.654Z,13.60
2018-02-11T01:48:01.647Z,12.30
2018-02-11T01:49:01.640Z,13.20
2018-02-11T01:50:01.632Z,13.90
2018-02-11T01:51:01.623Z,13.00
2018-02-11T01:52:01.617Z,12.70
2018-02-11T01:53:01.610Z,13.70
2018-02-11T01:54:01.602Z,13.30
2018-02-11T01:55:01.593Z,13.50
2018-02-11T01:56:01.587Z,13.90
2018-02-11T01:57:01.579Z,13.90
2018-02-11T01:58:01.573Z,12.60
2018-02-11T01:59:01.564Z,12.10
2018-02-11T02:00:01.556Z,13.10
2018-02-11T02:01:01.549Z,14.00
2018-02-11T02:02:01.540Z,13.40
2018-02-11T02:03:01.532Z,12.10
2018-02-11T02:04:01.530Z,12.40
2018-02-11T02:05:01.518Z,13.00
2018-02-11T02:06:01.512Z,12.60
2018-02-11T02:07:01.504Z,11.80
2018-02-11T02:08:01.496Z,12.80
2018-02-11T02:09:01.488Z,12.50
2018-02-11T02:10:01.481Z,12.70
2018-02-11T02:11:01.477Z,12.70
2018-02-11T02:12:01.465Z,12.50
2018-02-11T02:13:01.457Z,12.80
2018-02-11T02:14:01.451Z,13.90
2018-02-11T02:15:01.442Z,13.20
2018-02-11T02:16:01.435Z,14.90
2018-02-11T02:17:01.430Z,16.30
2018-02-11T02:18:01.420Z,16.80
2018-02-11T02:19:01.413Z,17.80
2018-02-11T02:20:01.406Z,18.10
2018-02-11T02:21:01.397Z,16.90
2018-02-11T02:22:01.391Z,18.40
2018-02-11T02:23:01.382Z,17.10
2018-02-11T02:24:01.374Z,18.50
2018-02-11T02:25:01.367Z,16.70
2018-02-11T02:26:01.362Z,17.20
2018-02-11T02:27:01.352Z,16.70
2018-02-11T02:28:01.345Z,16.00
2018-02-11T02:29:01.338Z,15.10
2018-02-11T02:30:01.330Z,16.90
2018-02-11T02:31:01.323Z,16.90
2018-02-11T02:32:01.315Z,15.40
2018-02-11T02:33:01.308Z,17.00
2018-02-11T02:34:01.301Z,15.70
2018-02-11T02:35:01.293Z,16.10
2018-02-11T02:36:01.285Z,14.80
2018-02-11T02:37:01.280Z,15.50
2018-02-11T02:38:01.271Z,16.20
2018-02-11T02:39:01.263Z,17.10
2018-02-11T02:40:01.257Z,14.60
2018-02-11T02:41:01.247Z,17.00
2018-02-11T02:42:01.240Z,17.00
2018-02-11T02:43:01.232Z,16.00
2018-02-11T02:44:01.226Z,16.70
2018-02-11T02:45:01.218Z,16.40
2018-02-11T02:46:01.210Z,17.20
2018-02-11T02:47:01.202Z,17.10
2018-02-11T02:48:01.193Z,18.50
2018-02-11T02:49:01.186Z,17.70
2018-02-11T02:50:01.180Z,17.50
2018-02-11T02:51:01.172Z,18.60
2018-02-11T02:52:01.167Z,17.90
2018-02-11T02:53:01.156Z,17.40
2018-02-11T02:54:01.150Z,18.30
2018-02-11T02:55:01.140Z,18.80
2018-02-11T02:56:01.133Z,19.90
2018-02-11T02:57:01.127Z,18.30
2018-02-11T02:58:01.120Z,18.70
2018-02-11T02:59:01.111Z,18.90
2018-02-11T03:00:01.103Z,18.40
2018-02-11T03:01:01.100Z,18.60
2018-02-11T03:02:01.088Z,18.30
2018-02-11T03:03:01.079Z,19.90
2018-02-11T03:04:01.073Z,18.60
2018-02-11T03:05:01.065Z,18.90
2018-02-11T03:06:01.059Z,19.30
2018-02-11T03:07:01.051Z,17.70
2018-02-11T03:08:01.043Z,19.40
2018-02-11T03:09:01.037Z,17.50
2018-02-11T03:10:01.029Z,18.40
2018-02-11T03:11:01.021Z,18.50
2018-02-11T03:12:01.015Z,18.40
2018-02-11T03:13:01.006Z,18.10
2018-02-11T03:14:00.998Z,17.50
2018-02-11T03:15:00.996Z,18.50
2018-02-11T03:16:00.983Z,19.80
2018-02-11T03:17:00.976Z,17.70
2018-02-11T03:18:00.969Z,17.90
2018-02-11T03:19:00.961Z,17.70
2018-02-11T03:20:00.955Z,17.30
2018-02-11T03:21:00.948Z,18.20
2018-02-11T03:22:00.940Z,18.40
2018-02-11T03:23:00.933Z,18.40
2018-02-11T03:24:00.925Z,18.90
2018-02-11T03:25:00.918Z,19.20
2018-02-11T03:26:00.911Z,18.90
2018-02-11T03:27:00.901Z,20.40
2018-02-11T03:28:00.894Z,19.30
2018-02-11T03:29:00.887Z,19.00
2018-02-11T03:30:00.881Z,20.00
2018-02-11T03:31:00.873Z,19.80
2018-02-11T03:32:00.865Z,17.80
2018-02-11T03:33:00.858Z,20.40
2018-02-11T03:34:00.852Z,19.00
2018-02-11T03:35:00.843Z,19.40
2018-02-11T03:36:00.836Z,18.20
2018-02-11T03:37:00.829Z,19.20
2018-02-11T03:38:00.822Z,18.90
2018-02-11T03:39:00.815Z,19.60
2018-02-11T03:40:00.807Z,19.80
2018-02-11T03:41:00.800Z,18.70
2018-02-11T03:42:00.793Z,19.10
2018-02-11T03:43:00.784Z,19.70
2018-02-11T03:44:00.776Z,20.60
2018-02-11T03:45:00.769Z,20.30
2018-02-11T03:46:00.764Z,20.90
2018-02-11T03:47:00.755Z,19.30
2018-02-11T03:48:00.748Z,19.50
2018-02-11T03:49:00.740Z,20.00
2018-02-11T03:50:00.733Z,19.70
2018-02-11T03:51:00.725Z,19.50
2018-02-11T03:52:00.718Z,19.10
2018-02-11T03:53:00.710Z,20.60
2018-02-11T03:54:00.704Z,20.80
2018-02-11T03:55:00.696Z,19.80
2018-02-11T03:56:00.687Z,19.80
2018-02-11T03:57:00.681Z,21.40
2018-02-11T03:58:00.678Z,20.40
2018-02-11T03:59:00.665Z,20.70
2018-02-11T04:00:00.659Z,19.20
2018-02-11T04:01:00.651Z,21.40
2018-02-11T04:02:00.643Z,21.20
2018-02-11T04:03:00.637Z,19.30
2018-02-11T04:04:00.628Z,20.30
2018-02-11T04:05:00.622Z,18.90
2018-02-11T04:06:00.615Z,21.00
2018-02-11T04:07:00.606Z,20.00
2018-02-11T04:08:00.598Z,20.00
2018-02-11T04:09:00.591Z,19.90
2018-02-11T04:10:00.584Z,20.60
2018-02-11T04:11:00.576Z,20.60
2018-02-11T04:12:00.567Z,22.10
2018-02-11T04:13:00.560Z,19.90
2018-02-11T04:14:00.553Z,21.70
2018-02-11T04:15:00.546Z,22.10
2018-02-11T04:16:00.537Z,20.80
2018-02-11T04:17:00.530Z,23.50
2018-02-11T04:18:00.523Z,22.00
2018-02-11T04:19:00.514Z,22.00
2018-02-11T04:20:00.506Z,22.10
2018-02-11T04:21:00.500Z,21.90
2018-02-11T04:22:00.492Z,19.90
2018-02-11T04:23:00.482Z,20.90
2018-02-11T04:24:00.476Z,21.60
2018-02-11T04:25:00.468Z,19.90
2018-02-11T04:26:00.461Z,22.00
2018-02-11T04:27:00.451Z,22.20
2018-02-11T04:28:00.444Z,21.90
2018-02-11T04:29:00.437Z,22.70
2018-02-11T04:30:00.431Z,22.50
2018-02-11T04:31:00.421Z,21.80
2018-02-11T04:32:00.412Z,21.90
2018-02-11T04:33:00.405Z,21.00
2018-02-11T04:34:00.401Z,22.40
2018-02-11T04:35:00.389Z,22.20
2018-02-11T04:36:00.384Z,24.20
2018-02-11T04:37:00.373Z,24.10
2018-02-11T04:38:00.366Z,24.10
2018-02-11T04:39:00.356Z,22.80
2018-02-11T04:40:00.350Z,22.30
2018-02-11T04:41:00.342Z,25.30
2018-02-11T04:42:00.334Z,23.60
2018-02-11T04:43:00.325Z,24.60
2018-02-11T04:44:00.318Z,24.70
2018-02-11T04:45:00.315Z,25.10
2018-02-11T04:46:00.304Z,24.40
2018-02-11T04:47:00.295Z,25.70
2018-02-11T04:48:00.286Z,24.10
2018-02-11T04:49:00.277Z,26.20
2018-02-11T04:50:00.271Z,26.00
2018-02-11T04:51:00.262Z,25.10
2018-02-11T04:52:00.254Z,25.40
2018-02-11T04:53:00.245Z,24.40
2018-02-11T04:54:00.238Z,25.80
2018-02-11T04:55:00.230Z,27.60
2018-02-11T04:56:00.223Z,25.60
2018-02-11T04:57:00.214Z,26.80
2018-02-11T04:58:00.210Z,25.20
2018-02-11T04:59:00.198Z,26.80
2018-02-11T05:00:00.189Z,25.50
2018-02-11T05:01:00.182Z,25.20
2018-02-11T05:02:00.175Z,25.70
2018-02-11T05:03:00.165Z,23.80
2018-02-11T05:04:00.158Z,24.90
2018-02-11T05:05:00.150Z,24.30
2018-02-11T05:06:00.143Z,25.20
2018-02-11T05:07:00.134Z,24.50
2018-02-11T05:08:00.126Z,25.70
2018-02-11T05:09:00.118Z,23.80
2018-02-11T05:10:00.111Z,24.50
2018-02-11T05:11:00.101Z,25.00
2018-02-11T05:12:00.093Z,25.30
2018-02-11T05:13:00.086Z,26.30
2018-02-11T05:14:00.079Z,26.00
2018-02-11T05:15:00.071Z,24.80
2018-02-11T05:16:00.062Z,24.80
2018-02-11T05:17:00.054Z,25.40
2018-02-11T05:18:00.046Z,24.50
2018-02-11T05:19:00.038Z,25.40
2018-02-11T05:20:00.033Z,26.30
2018-02-11T05:21:00.022Z,26.10
2018-02-11T05:22:00.016Z,24.60
2018-02-11T05:23:00.006Z,25.70
2018-02-11T05:23:59.996Z,25.90
2018-02-11T05:24:59.996Z,24.80
2018-02-11T05:25:59.981Z,26.20
2018-02-11T05:26:59.972Z,25.70
2018-02-11T05:27:59.964Z,24.50
2018-02-11T05:28:59.957Z,25.80
2018-02-11T05:29:59.948Z,26.00
2018-02-11T05:30:59.940Z,26.10
2018-02-11T05:31:59.932Z,26.00
2018-02-11T05:32:59.923Z,25.10
2018-02-11T05:33:59.915Z,25.20
2018-02-11T05:34:59.907Z,25.30
2018-02-11T05:35:59.899Z,24.70
2018-02-11T05:36:59.892Z,23.50
2018-02-11T05:37:59.882Z,24.90
2018-02-11T05:38:59.873Z,26.10
2018-02-11T05:39:59.865Z,24.20
2018-02-11T05:40:59.858Z,23.90
2018-02-11T05:41:59.851Z,26.50
2018-02-11T05:42:59.842Z,24.50
2018-02-11T05:43:59.834Z,25.10
2018-02-11T05:44:59.826Z,24.20
2018-02-11T05:45:59.817Z,24.90
2018-02-11T05:46:59.810Z,24.80
2018-02-11T05:47:59.801Z,25.30
2018-02-11T05:48:59.792Z,25.30
2018-02-11T05:49:59.786Z,23.00
2018-02-11T05:50:59.777Z,23.30
2018-02-11T05:51:59.768Z,23.20
2018-02-11T05:52:59.761Z,23.40
2018-02-11T05:53:59.753Z,25.30
2018-02-11T05:54:59.743Z,23.80
2018-02-11T05:55:59.736Z,23.00
2018-02-11T05:56:59.729Z,23.80
2018-02-11T05:57:59.719Z,24.50
2018-02-11T05:58:59.710Z,25.70
2018-02-11T05:59:59.702Z,26.60
2018-02-11T06:00:59.695Z,24.70
2018-02-11T06:01:59.686Z,24.60
2018-02-11T06:02:59.677Z,24.30
2018-02-11T06:03:59.669Z,25.60
2018-02-11T06:04:59.661Z,25.00
2018-02-11T06:05:59.653Z,23.50
2018-02-11T06:06:59.645Z,24.60
2018-02-11T06:07:59.637Z,25.20
2018-02-11T06:08:59.628Z,25.10
2018-02-11T06:09:59.621Z,23.60
2018-02-11T06:10:59.611Z,25.10
2018-02-11T06:11:59.603Z,23.60
2018-02-11T06:12:59.595Z,24.20
2018-02-11T06:13:59.588Z,23.30
2018-02-11T06:14:59.579Z,24.10
2018-02-11T06:15:59.572Z,25.50
2018-02-11T06:16:59.562Z,22.60
2018-02-11T06:17:59.595Z,22.60
2018-02-11T06:18:59.544Z,23.20
2018-02-11T06:19:59.537Z,24.70
2018-02-11T06:20:59.529Z,24.80
2018-02-11T06:21:59.522Z,24.00
2018-02-11T06:22:59.512Z,23.70
2018-02-11T06:23:59.507Z,23.30
2018-02-11T06:24:59.496Z,23.70
2018-02-11T06:25:59.486Z,22.50
2018-02-11T06:26:59.478Z,21.90
2018-02-11T06:27:59.472Z,21.80
2018-02-11T06:28:59.462Z,22.50
2018-02-11T06:29:59.454Z,23.00
2018-02-11T06:30:59.444Z,22.00
2018-02-11T06:31:59.437Z,32.60
2018-02-11T06:32:59.429Z,31.80
2018-02-11T06:33:59.421Z,26.90
2018-02-11T06:34:59.412Z,28.00
2018-02-11T06:35:59.404Z,27.90
2018-02-11T06:36:59.396Z,28.30
2018-02-11T06:37:59.388Z,28.10
2018-02-11T06:38:59.379Z,22.70
2018-02-11T06:39:59.370Z,23.20
2018-02-11T06:40:59.361Z,25.10
2018-02-11T06:41:59.353Z,26.80
2018-02-11T06:42:59.343Z,32.40
2018-02-11T06:43:59.335Z,29.40
2018-02-11T06:44:59.331Z,28.10
2018-02-11T06:45:59.320Z,27.60
2018-02-11T06:46:59.313Z,26.40
2018-02-11T06:47:59.303Z,27.10
2018-02-11T06:48:59.295Z,30.20
2018-02-11T06:49:59.286Z,29.00
2018-02-11T06:50:59.277Z,27.80
2018-02-11T06:51:59.269Z,30.00
2018-02-11T06:52:59.263Z,29.90
2018-02-11T06:53:59.253Z,28.20
2018-02-11T06:54:59.243Z,27.90
2018-02-11T06:55:59.236Z,28.70
2018-02-11T06:56:59.228Z,26.20
2018-02-11T06:57:59.219Z,24.60
2018-02-11T06:58:59.211Z,24.40
2018-02-11T06:59:59.203Z,24.80
2018-02-11T07:00:59.194Z,23.90
2018-02-11T07:01:59.187Z,24.40
2018-02-11T07:02:59.177Z,22.20
2018-02-11T07:03:59.170Z,21.90
2018-02-11T07:04:59.162Z,21.40
2018-02-11T07:05:59.155Z,19.60
2018-02-11T07:06:59.145Z,20.50
2018-02-11T07:07:59.137Z,19.40
2018-02-11T07:08:59.132Z,18.90
2018-02-11T07:09:59.124Z,20.60
2018-02-11T07:10:59.115Z,18.80
2018-02-11T07:11:59.107Z,20.10
2018-02-11T07:12:59.099Z,20.00
2018-02-11T07:13:59.091Z,19.40
2018-02-11T07:14:59.084Z,18.60
2018-02-11T07:15:59.075Z,18.30
2018-02-11T07:16:59.069Z,19.60
2018-02-11T07:17:59.060Z,19.40
2018-02-11T07:18:59.052Z,18.10
2018-02-11T07:19:59.045Z,17.50
2018-02-11T07:20:59.038Z,17.80
2018-02-11T07:21:59.031Z,17.70
2018-02-11T07:22:59.023Z,18.30
2018-02-11T07:23:59.017Z,19.00
2018-02-11T07:24:59.010Z,17.60
2018-02-11T07:25:59.002Z,16.70
2018-02-11T07:26:58.993Z,16.50
2018-02-11T07:27:58.988Z,16.80
2018-02-11T07:28:58.979Z,16.60
2018-02-11T07:29:58.972Z,16.90
2018-02-11T07:30:58.965Z,17.60
2018-02-11T07:31:58.957Z,16.80
2018-02-11T07:32:58.952Z,15.70
2018-02-11T07:33:58.946Z,17.70
2018-02-11T07:34:58.938Z,17.20
2018-02-11T07:35:58.932Z,15.80
2018-02-11T07:36:58.925Z,15.40
2018-02-11T07:37:58.918Z,16.00
2018-02-11T07:38:58.911Z,15.50
2018-02-11T07:39:58.907Z,16.90
2018-02-11T07:40:58.900Z,16.10
2018-02-11T07:41:58.894Z,16.00
2018-02-11T07:42:58.888Z,17.30
2018-02-11T07:43:58.885Z,15.00
2018-02-11T07:44:58.880Z,15.10
2018-02-11T07:45:58.881Z,15.90
2018-02-11T07:46:58.871Z,15.90
2018-02-11T07:47:58.866Z,14.80
2018-02-11T07:48:58.864Z,15.50
2018-02-11T07:49:58.861Z,15.50
2018-02-11T07:50:58.855Z,15.60
2018-02-11T07:51:58.855Z,15.40
2018-02-11T07:52:58.853Z,14.30
2018-02-11T07:53:58.852Z,15.90
2018-02-11T07:54:58.848Z,15.90
2018-02-11T07:55:58.849Z,15.90
2018-02-11T07:56:58.849Z,16.80
2018-02-11T07:57:58.849Z,16.40
2018-02-11T07:58:58.847Z,14.70
2018-02-11T07:59:58.846Z,16.70
2018-02-11T08:00:58.847Z,16.40
2018-02-11T08:01:58.848Z,15.70
2018-02-11T08:02:58.848Z,16.30
2018-02-11T08:03:58.845Z,15.80
2018-02-11T08:04:58.847Z,15.50
2018-02-11T08:05:58.846Z,16.50
2018-02-11T08:06:58.844Z,15.80
2018-02-11T08:07:58.842Z,15.30
2018-02-11T08:08:58.842Z,15.20
2018-02-11T08:09:58.839Z,16.10
2018-02-11T08:10:58.837Z,14.80
2018-02-11T08:11:58.835Z,15.40
2018-02-11T08:12:58.834Z,15.80
2018-02-11T08:13:58.830Z,15.80
2018-02-11T08:14:58.826Z,15.70
2018-02-11T08:15:58.824Z,16.00
2018-02-11T08:16:58.868Z,15.10
2018-02-11T08:17:58.819Z,15.40
2018-02-11T08:18:58.862Z,14.40
2018-02-11T08:19:58.812Z,15.60
2018-02-11T08:20:58.806Z,15.20
2018-02-11T08:21:58.803Z,14.90
2018-02-11T08:22:58.798Z,14.60
2018-02-11T08:23:58.793Z,14.10
2018-02-11T08:24:58.791Z,14.30
2018-02-11T08:25:58.785Z,13.80
2018-02-11T08:26:58.781Z,15.70
2018-02-11T08:27:58.776Z,14.20
2018-02-11T08:28:58.771Z,15.30
2018-02-11T08:29:58.766Z,14.70
2018-02-11T08:30:58.759Z,14.40
2018-02-11T08:31:58.756Z,14.30
2018-02-11T08:32:58.750Z,15.10
2018-02-11T08:33:58.745Z,14.00
2018-02-11T08:34:58.745Z,13.90
2018-02-11T08:35:58.735Z,15.20
2018-02-11T08:36:58.729Z,14.50
2018-02-11T08:37:58.725Z,13.90
2018-02-11T08:38:58.719Z,13.50
2018-02-11T08:39:58.714Z,13.10
2018-02-11T08:40:58.709Z,12.30
2018-02-11T08:41:58.704Z,13.30
2018-02-11T08:42:58.699Z,12.80
2018-02-11T08:43:58.693Z,12.30
2018-02-11T08:44:58.688Z,13.90
2018-02-11T08:45:58.683Z,14.30
2018-02-11T08:46:58.677Z,13.20
2018-02-11T08:47:58.672Z,16.10
2018-02-11T08:48:58.667Z,14.80
2018-02-11T08:49:58.662Z,13.80
2018-02-11T08:50:58.655Z,14.10
2018-02-11T08:51:58.650Z,12.30
2018-02-11T08:52:58.645Z,13.30
2018-02-11T08:53:58.643Z,13.80
2018-02-11T08:54:58.634Z,13.60
2018-02-11T08:55:58.627Z,13.00
2018-02-11T08:56:58.623Z,13.20
2018-02-11T08:57:58.617Z,13.50
2018-02-11T08:58:58.614Z,13.00
2018-02-11T08:59:58.605Z,12.50
2018-02-11T09:00:58.601Z,12.90
2018-02-11T09:01:58.595Z,13.20
2018-02-11T09:02:58.589Z,13.40
2018-02-11T09:03:58.584Z,12.50
2018-02-11T09:04:58.579Z,13.40
2018-02-11T09:05:58.574Z,13.10
2018-02-11T09:06:58.568Z,12.60
2018-02-11T09:07:58.563Z,12.20
2018-02-11T09:08:58.558Z,12.30
2018-02-11T09:09:58.553Z,12.10
2018-02-11T09:10:58.546Z,11.90
2018-02-11T09:11:58.543Z,13.20
2018-02-11T09:12:58.537Z,12.90
2018-02-11T09:13:58.534Z,15.70
2018-02-11T09:14:58.527Z,13.00
2018-02-11T09:15:58.523Z,13.10
2018-02-11T09:16:58.519Z,12.60
2018-02-11T09:17:58.518Z,11.10
2018-02-11T09:18:58.509Z,13.00
2018-02-11T09:19:58.505Z,12.50
2018-02-11T09:20:58.500Z,11.90
2018-02-11T09:21:58.568Z,11.90
2018-02-11T09:22:58.490Z,12.80
2018-02-11T09:23:58.486Z,13.00
2018-02-11T09:24:58.481Z,11.90
2018-02-11T09:25:58.478Z,11.80
2018-02-11T09:26:58.472Z,12.10
2018-02-11T09:27:58.469Z,12.20
2018-02-11T09:28:58.466Z,13.00
2018-02-11T09:29:58.463Z,14.20
2018-02-11T09:30:58.456Z,16.70
2018-02-11T09:31:58.454Z,17.80
2018-02-11T09:32:58.452Z,16.90
2018-02-11T09:33:58.448Z,17.00
2018-02-11T09:34:58.451Z,15.90
2018-02-11T09:35:58.442Z,16.00
2018-02-11T09:36:58.438Z,16.00
2018-02-11T09:37:58.436Z,13.70
2018-02-11T09:38:58.432Z,14.20
2018-02-11T09:39:58.430Z,13.80
2018-02-11T09:40:58.427Z,14.80
2018-02-11T09:41:58.424Z,13.30
2018-02-11T09:42:58.422Z,14.50
2018-02-11T09:43:58.419Z,13.50
2018-02-11T09:44:58.462Z,14.80
2018-02-11T09:45:58.415Z,12.60
2018-02-11T09:46:58.411Z,14.20
2018-02-11T09:47:58.409Z,15.20
2018-02-11T09:48:58.406Z,14.30
2018-02-11T09:49:58.406Z,13.90
2018-02-11T09:50:58.447Z,14.70
2018-02-11T09:51:58.398Z,13.20
2018-02-11T09:52:58.395Z,13.40
2018-02-11T09:53:58.693Z,14.50
2018-02-11T09:54:58.389Z,14.40
2018-02-11T09:55:58.387Z,13.00
2018-02-11T09:56:58.384Z,14.30
2018-02-11T09:57:58.380Z,14.90
2018-02-11T09:58:58.377Z,14.90
2018-02-11T09:59:58.376Z,14.20
2018-02-11T10:00:58.374Z,14.10
2018-02-11T10:01:58.372Z,14.00
2018-02-11T10:02:58.367Z,13.00
2018-02-11T10:03:58.367Z,12.70
2018-02-11T10:04:58.365Z,15.10
2018-02-11T10:05:58.362Z,12.40
2018-02-11T10:06:58.361Z,11.90
2018-02-11T10:07:58.359Z,11.40
2018-02-11T10:08:58.356Z,12.20
2018-02-11T10:09:58.353Z,13.40
2018-02-11T10:10:58.351Z,13.00
2018-02-11T10:11:58.348Z,12.50
2018-02-11T10:12:58.346Z,13.50
2018-02-11T10:13:58.343Z,13.00
2018-02-11T10:14:58.339Z,11.80
2018-02-11T10:15:58.335Z,12.10
2018-02-11T10:16:58.333Z,13.20
2018-02-11T10:17:58.331Z,13.70
2018-02-11T10:18:58.326Z,11.80
2018-02-11T10:19:58.322Z,12.60
2018-02-11T10:20:58.319Z,12.60
2018-02-11T10:21:58.316Z,12.50
2018-02-11T10:22:58.313Z,11.90
2018-02-11T10:23:58.308Z,12.70
2018-02-11T10:24:58.306Z,11.50
2018-02-11T10:25:58.303Z,12.80
2018-02-11T10:26:58.298Z,13.70
2018-02-11T10:27:58.294Z,13.30
2018-02-11T10:28:58.291Z,14.10
2018-02-11T10:29:58.287Z,13.60
2018-02-11T10:30:58.283Z,11.50
2018-02-11T10:31:58.279Z,11.50
2018-02-11T10:32:58.276Z,11.10
2018-02-11T10:33:58.302Z,12.40
2018-02-11T10:34:58.267Z,11.70
2018-02-11T10:35:58.263Z,12.00
2018-02-11T10:36:58.259Z,12.40
2018-02-11T10:37:58.256Z,10.80
2018-02-11T10:38:58.251Z,11.00
2018-02-11T10:39:58.247Z,10.80
2018-02-11T10:40:58.243Z,11.90
2018-02-11T10:41:58.238Z,11.10
2018-02-11T10:42:58.234Z,10.70
2018-02-11T10:43:58.231Z,11.70
2018-02-11T10:44:58.225Z,11.70
2018-02-11T10:45:58.223Z,11.20
2018-02-11T10:46:58.218Z,9.80
2018-02-11T10:47:58.215Z,10.80
2018-02-11T10:48:58.209Z,10.90
2018-02-11T10:49:58.206Z,10.30
2018-02-11T10:50:58.201Z,10.40
2018-02-11T10:51:58.196Z,9.50
2018-02-11T10:52:58.192Z,10.20
2018-02-11T10:53:58.188Z,10.00
2018-02-11T10:54:58.185Z,10.60
2018-02-11T10:55:58.180Z,10.30
2018-02-11T10:56:58.176Z,10.00
2018-02-11T10:57:58.174Z,10.50
2018-02-11T10:58:58.168Z,10.60
2018-02-11T10:59:58.194Z,10.10
2018-02-11T11:00:58.161Z,10.50
2018-02-11T11:01:58.156Z,10.70
2018-02-11T11:02:58.153Z,11.20
2018-02-11T11:03:58.148Z,11.20
2018-02-11T11:04:58.144Z,11.00
2018-02-11T11:05:58.140Z,10.30
2018-02-11T11:06:58.135Z,10.30
2018-02-11T11:07:58.130Z,10.30
2018-02-11T11:08:58.126Z,10.60
2018-02-11T11:09:58.123Z,11.10
2018-02-11T11:10:58.119Z,11.10
2018-02-11T11:11:58.114Z,9.80
2018-02-11T11:12:58.109Z,11.30
2018-02-11T11:13:58.107Z,10.30
2018-02-11T11:14:58.101Z,10.40
2018-02-11T11:15:58.101Z,10.50
2018-02-11T11:16:58.094Z,11.80
2018-02-11T11:17:58.089Z,11.10
2018-02-11T11:18:58.084Z,9.00
2018-02-11T11:19:58.081Z,10.60
2018-02-11T11:20:58.105Z,11.30
2018-02-11T11:21:58.073Z,10.20
2018-02-11T11:22:58.068Z,9.50
2018-02-11T11:23:58.064Z,10.90
2018-02-11T11:24:58.058Z,10.50
2018-02-11T11:25:58.056Z,11.60
2018-02-11T11:26:58.051Z,12.20
2018-02-11T11:27:58.046Z,11.20
2018-02-11T11:28:58.041Z,10.90
2018-02-11T11:29:58.042Z,10.60
2018-02-11T11:30:58.033Z,10.30
2018-02-11T11:31:58.029Z,10.50
2018-02-11T11:32:58.024Z,11.00
2018-02-11T11:33:58.021Z,9.70
2018-02-11T11:34:58.014Z,10.00
2018-02-11T11:35:58.011Z,10.00
2018-02-11T11:36:58.006Z,9.60
2018-02-11T11:37:58.003Z,10.40
2018-02-11T11:38:58.004Z,10.20
2018-02-11T11:39:57.994Z,9.50
2018-02-11T11:40:57.989Z,10.00
2018-02-11T11:41:57.986Z,11.30
2018-02-11T11:42:57.980Z,10.20
2018-02-11T11:43:57.974Z,9.10
2018-02-11T11:44:57.972Z,10.00
2018-02-11T11:45:57.967Z,9.90
2018-02-11T11:46:57.968Z,9.20
2018-02-11T11:47:57.958Z,7.90
2018-02-11T11:48:57.957Z,8.40
2018-02-11T11:49:57.952Z,7.90
2018-02-11T11:50:57.947Z,8.20
2018-02-11T11:51:57.942Z,8.80
2018-02-11T11:52:57.938Z,8.30
2018-02-11T11:53:57.934Z,8.50
2018-02-11T11:54:57.930Z,7.80
2018-02-11T11:55:57.928Z,8.00
2018-02-11T11:56:57.922Z,7.90
2018-02-11T11:57:57.919Z,8.00
2018-02-11T11:58:57.914Z,9.00
2018-02-11T11:59:57.909Z,8.20
2018-02-11T12:00:57.905Z,8.70
2018-02-11T12:01:57.901Z,8.50
2018-02-11T12:02:57.897Z,8.50
2018-02-11T12:03:57.894Z,8.00
2018-02-11T12:04:57.889Z,8.90
2018-02-11T12:05:57.886Z,8.60
2018-02-11T12:06:57.882Z,9.00
2018-02-11T12:07:57.878Z,9.00
2018-02-11T12:08:57.873Z,8.70
2018-02-11T12:09:57.869Z,9.50
2018-02-11T12:10:57.866Z,9.00
2018-02-11T12:11:57.867Z,9.10
2018-02-11T12:12:57.859Z,9.40
2018-02-11T12:13:57.855Z,9.40
2018-02-11T12:14:57.849Z,9.90
2018-02-11T12:15:57.845Z,8.70
2018-02-11T12:16:57.843Z,9.20
2018-02-11T12:17:57.838Z,9.20
2018-02-11T12:18:57.834Z,8.90
2018-02-11T12:19:57.829Z,9.00
2018-02-11T12:20:57.825Z,9.10
2018-02-11T12:21:57.822Z,8.80
2018-02-11T12:22:57.815Z,9.50
2018-02-11T12:23:57.811Z,8.50
2018-02-11T12:24:57.806Z,9.40
2018-02-11T12:25:57.804Z,8.70
2018-02-11T12:26:57.797Z,8.60
2018-02-11T12:27:57.793Z,8.00
2018-02-11T12:28:57.789Z,9.10
2018-02-11T12:29:57.785Z,8.40
2018-02-11T12:30:57.779Z,9.30
2018-02-11T12:31:57.776Z,7.80
2018-02-11T12:32:57.776Z,7.70
2018-02-11T12:33:57.772Z,8.30
2018-02-11T12:34:57.762Z,8.00
2018-02-11T12:35:57.758Z,8.90
2018-02-11T12:36:57.753Z,8.40
2018-02-11T12:37:57.748Z,8.20
2018-02-11T12:38:57.746Z,11.40
2018-02-11T12:39:57.741Z,10.60
2018-02-11T12:40:57.739Z,9.70
2018-02-11T12:41:57.736Z,8.50
2018-02-11T12:42:57.727Z,7.50
2018-02-11T12:43:57.724Z,8.10
2018-02-11T12:44:57.720Z,7.50
2018-02-11T12:45:57.715Z,7.70
2018-02-11T12:46:57.712Z,8.40
2018-02-11T12:47:57.707Z,9.60
2018-02-11T12:48:57.704Z,10.60
2018-02-11T12:49:57.701Z,9.30
2018-02-11T12:50:57.696Z,7.40
2018-02-11T12:51:57.691Z,7.70
2018-02-11T12:52:57.687Z,7.10
2018-02-11T12:53:57.683Z,7.70
2018-02-11T12:54:57.679Z,8.30